sensor_id;sensor_type;location;lat;lon;timestamp;temperature;humidity
15241;DHT22;7723;52.170;9.978;2023-11-19T00:02:21;6.30;99.90
15241;DHT22;7723;52.170;9.978;2023-11-19T00:04:48;6.30;99.90
15241;DHT22;7723;52.170;9.978;2023-11-19T00:07:15;6.30;99.90
15241;DHT22;7723;52.170;9.978;2023-11-19T00:09:43;6.40;99.90
15241;DHT22;7723;52.170;9.978;2023-11-19T00:12:10;6.40;99.90
15241;DHT22;7723;52.170;9.978;2023-11-19T00:14:37;6.40;99.90
15241;DHT22;7723;52.170;9.978;2023-11-19T00:17:05;6.40;99.90
15241;DHT22;7723;52.170;9.978;2023-11-19T00:19:32;6.40;99.90
15241;DHT22;7723;52.170;9.978;2023-11-19T00:21:59;6.50;99.90
15241;DHT22;7723;52.170;9.978;2023-11-19T00:24:28;6.50;99.90
15241;DHT22;7723;52.170;9.978;2023-11-19T00:26:56;6.50;99.90
15241;DHT22;7723;52.170;9.978;2023-11-19T00:29:23;6.50;99.90
15241;DHT22;7723;52.170;9.978;2023-11-19T00:31:50;6.50;99.90
15241;DHT22;7723;52.170;9.978;2023-11-19T00:34:19;6.60;99.90
15241;DHT22;7723;52.170;9.978;2023-11-19T00:36:48;6.50;99.90
15241;DHT22;7723;52.170;9.978;2023-11-19T00:39:15;6.60;99.90
15241;DHT22;7723;52.170;9.978;2023-11-19T00:41:43;6.60;99.90
15241;DHT22;7723;52.170;9.978;2023-11-19T00:44:11;6.60;99.90
15241;DHT22;7723;52.170;9.978;2023-11-19T00:46:38;6.60;99.90
15241;DHT22;7723;52.170;9.978;2023-11-19T00:49:06;6.70;99.90
15241;DHT22;7723;52.170;9.978;2023-11-19T00:51:35;6.70;99.90
15241;DHT22;7723;52.170;9.978;2023-11-19T00:54:06;6.80;99.90
15241;DHT22;7723;52.170;9.978;2023-11-19T00:56:33;6.80;99.90
15241;DHT22;7723;52.170;9.978;2023-11-19T00:59:01;6.80;99.90
15241;DHT22;7723;52.170;9.978;2023-11-19T01:01:28;6.80;99.90
15241;DHT22;7723;52.170;9.978;2023-11-19T01:03:55;6.80;99.90
15241;DHT22;7723;52.170;9.978;2023-11-19T01:06:29;6.80;99.90
15241;DHT22;7723;52.170;9.978;2023-11-19T01:08:58;6.80;99.90
15241;DHT22;7723;52.170;9.978;2023-11-19T01:11:26;6.80;99.90
15241;DHT22;7723;52.170;9.978;2023-11-19T01:13:53;6.80;99.90
15241;DHT22;7723;52.170;9.978;2023-11-19T01:16:21;6.90;99.90
15241;DHT22;7723;52.170;9.978;2023-11-19T01:18:48;6.90;99.90
15241;DHT22;7723;52.170;9.978;2023-11-19T01:21:16;6.90;99.90
15241;DHT22;7723;52.170;9.978;2023-11-19T01:23:43;6.90;99.90
15241;DHT22;7723;52.170;9.978;2023-11-19T01:26:13;7.00;99.90
15241;DHT22;7723;52.170;9.978;2023-11-19T01:28:40;7.00;99.90
15241;DHT22;7723;52.170;9.978;2023-11-19T01:31:11;7.10;99.90
15241;DHT22;7723;52.170;9.978;2023-11-19T01:33:38;7.10;99.90
15241;DHT22;7723;52.170;9.978;2023-11-19T01:36:07;7.10;99.90
15241;DHT22;7723;52.170;9.978;2023-11-19T01:38:36;7.20;99.90
15241;DHT22;7723;52.170;9.978;2023-11-19T01:41:04;7.20;99.90
15241;DHT22;7723;52.170;9.978;2023-11-19T01:43:35;7.30;99.90
15241;DHT22;7723;52.170;9.978;2023-11-19T01:46:04;7.30;99.90
15241;DHT22;7723;52.170;9.978;2023-11-19T01:48:32;7.30;99.90
15241;DHT22;7723;52.170;9.978;2023-11-19T01:51:01;7.30;99.90
15241;DHT22;7723;52.170;9.978;2023-11-19T01:53:30;7.30;99.90
15241;DHT22;7723;52.170;9.978;2023-11-19T01:55:58;7.30;99.90
15241;DHT22;7723;52.170;9.978;2023-11-19T01:58:25;7.40;99.90
15241;DHT22;7723;52.170;9.978;2023-11-19T02:00:57;7.40;99.90
15241;DHT22;7723;52.170;9.978;2023-11-19T02:03:26;7.40;99.90
15241;DHT22;7723;52.170;9.978;2023-11-19T02:05:54;7.40;99.90
15241;DHT22;7723;52.170;9.978;2023-11-19T02:08:22;7.50;99.90
15241;DHT22;7723;52.170;9.978;2023-11-19T02:10:52;7.50;99.90
15241;DHT22;7723;52.170;9.978;2023-11-19T02:13:20;7.50;99.90
15241;DHT22;7723;52.170;9.978;2023-11-19T02:15:48;7.60;99.90
15241;DHT22;7723;52.170;9.978;2023-11-19T02:18:20;7.70;99.90
15241;DHT22;7723;52.170;9.978;2023-11-19T02:20:48;7.70;99.90
15241;DHT22;7723;52.170;9.978;2023-11-19T02:23:16;7.70;99.90
15241;DHT22;7723;52.170;9.978;2023-11-19T02:25:47;7.70;99.90
15241;DHT22;7723;52.170;9.978;2023-11-19T02:28:20;7.60;99.90
15241;DHT22;7723;52.170;9.978;2023-11-19T02:30:47;7.70;99.90
15241;DHT22;7723;52.170;9.978;2023-11-19T02:33:14;7.70;99.90
15241;DHT22;7723;52.170;9.978;2023-11-19T02:35:42;7.70;99.90
15241;DHT22;7723;52.170;9.978;2023-11-19T02:38:12;7.80;99.90
15241;DHT22;7723;52.170;9.978;2023-11-19T02:40:39;7.70;99.90
15241;DHT22;7723;52.170;9.978;2023-11-19T02:43:06;7.80;99.90
15241;DHT22;7723;52.170;9.978;2023-11-19T02:45:36;7.80;99.90
15241;DHT22;7723;52.170;9.978;2023-11-19T02:48:04;7.80;99.90
15241;DHT22;7723;52.170;9.978;2023-11-19T02:50:32;7.90;99.90
15241;DHT22;7723;52.170;9.978;2023-11-19T02:52:59;7.90;99.90
15241;DHT22;7723;52.170;9.978;2023-11-19T02:55:26;7.90;99.90
15241;DHT22;7723;52.170;9.978;2023-11-19T02:57:56;7.90;99.90
15241;DHT22;7723;52.170;9.978;2023-11-19T03:00:25;8.00;99.90
15241;DHT22;7723;52.170;9.978;2023-11-19T03:03:01;8.10;99.90
15241;DHT22;7723;52.170;9.978;2023-11-19T03:05:43;8.10;99.90
15241;DHT22;7723;52.170;9.978;2023-11-19T03:08:12;8.20;99.90
15241;DHT22;7723;52.170;9.978;2023-11-19T03:10:40;8.20;99.90
15241;DHT22;7723;52.170;9.978;2023-11-19T03:13:11;8.30;99.90
15241;DHT22;7723;52.170;9.978;2023-11-19T03:15:42;8.30;99.90
15241;DHT22;7723;52.170;9.978;2023-11-19T03:18:11;8.30;99.90
15241;DHT22;7723;52.170;9.978;2023-11-19T03:20:39;8.30;99.90
15241;DHT22;7723;52.170;9.978;2023-11-19T03:23:06;8.30;99.90
15241;DHT22;7723;52.170;9.978;2023-11-19T03:25:33;8.30;99.90
15241;DHT22;7723;52.170;9.978;2023-11-19T03:28:02;8.30;99.90
15241;DHT22;7723;52.170;9.978;2023-11-19T03:30:30;8.30;99.90
15241;DHT22;7723;52.170;9.978;2023-11-19T03:32:58;8.30;99.90
15241;DHT22;7723;52.170;9.978;2023-11-19T03:35:30;8.30;99.90
15241;DHT22;7723;52.170;9.978;2023-11-19T03:37:58;8.30;99.90
15241;DHT22;7723;52.170;9.978;2023-11-19T03:40:26;8.40;99.90
15241;DHT22;7723;52.170;9.978;2023-11-19T03:42:56;8.30;99.90
15241;DHT22;7723;52.170;9.978;2023-11-19T03:45:23;8.40;99.90
15241;DHT22;7723;52.170;9.978;2023-11-19T03:47:50;8.40;99.90
15241;DHT22;7723;52.170;9.978;2023-11-19T03:50:17;8.30;99.90
15241;DHT22;7723;52.170;9.978;2023-11-19T03:52:47;8.40;99.90
15241;DHT22;7723;52.170;9.978;2023-11-19T03:55:14;8.40;99.90
15241;DHT22;7723;52.170;9.978;2023-11-19T03:57:41;8.40;99.90
15241;DHT22;7723;52.170;9.978;2023-11-19T04:00:09;8.50;99.90
15241;DHT22;7723;52.170;9.978;2023-11-19T04:02:39;8.60;99.90
15241;DHT22;7723;52.170;9.978;2023-11-19T04:05:09;8.60;99.90
15241;DHT22;7723;52.170;9.978;2023-11-19T04:07:39;8.60;99.90
15241;DHT22;7723;52.170;9.978;2023-11-19T04:10:08;8.70;99.90
15241;DHT22;7723;52.170;9.978;2023-11-19T04:12:39;8.70;99.90
15241;DHT22;7723;52.170;9.978;2023-11-19T04:15:07;8.70;99.90
15241;DHT22;7723;52.170;9.978;2023-11-19T04:17:34;8.80;99.90
15241;DHT22;7723;52.170;9.978;2023-11-19T04:20:01;8.80;99.90
15241;DHT22;7723;52.170;9.978;2023-11-19T04:22:29;8.80;99.90
15241;DHT22;7723;52.170;9.978;2023-11-19T04:24:56;8.80;99.90
15241;DHT22;7723;52.170;9.978;2023-11-19T04:27:25;8.90;99.90
15241;DHT22;7723;52.170;9.978;2023-11-19T04:29:52;8.90;99.90
15241;DHT22;7723;52.170;9.978;2023-11-19T04:32:20;8.90;99.90
15241;DHT22;7723;52.170;9.978;2023-11-19T04:34:48;8.90;99.90
15241;DHT22;7723;52.170;9.978;2023-11-19T04:37:15;8.90;99.90
15241;DHT22;7723;52.170;9.978;2023-11-19T04:39:44;8.90;99.90
15241;DHT22;7723;52.170;9.978;2023-11-19T04:42:11;8.90;99.90
15241;DHT22;7723;52.170;9.978;2023-11-19T04:44:44;9.00;99.90
15241;DHT22;7723;52.170;9.978;2023-11-19T04:47:11;9.00;99.90
15241;DHT22;7723;52.170;9.978;2023-11-19T04:49:40;9.00;99.90
15241;DHT22;7723;52.170;9.978;2023-11-19T04:52:08;9.00;99.90
15241;DHT22;7723;52.170;9.978;2023-11-19T04:54:41;9.00;99.90
15241;DHT22;7723;52.170;9.978;2023-11-19T04:57:08;9.10;99.90
15241;DHT22;7723;52.170;9.978;2023-11-19T04:59:36;9.10;99.90
15241;DHT22;7723;52.170;9.978;2023-11-19T05:02:05;9.10;99.90
15241;DHT22;7723;52.170;9.978;2023-11-19T05:04:32;9.20;99.90
15241;DHT22;7723;52.170;9.978;2023-11-19T05:06:59;9.30;99.90
15241;DHT22;7723;52.170;9.978;2023-11-19T05:09:26;9.60;99.90
15241;DHT22;7723;52.170;9.978;2023-11-19T05:11:53;9.50;99.90
15241;DHT22;7723;52.170;9.978;2023-11-19T05:14:21;9.60;99.90
15241;DHT22;7723;52.170;9.978;2023-11-19T05:16:50;9.60;99.90
15241;DHT22;7723;52.170;9.978;2023-11-19T05:19:18;9.60;99.90
15241;DHT22;7723;52.170;9.978;2023-11-19T05:21:45;9.60;99.90
15241;DHT22;7723;52.170;9.978;2023-11-19T05:24:12;9.80;99.90
15241;DHT22;7723;52.170;9.978;2023-11-19T05:26:39;9.90;99.90
15241;DHT22;7723;52.170;9.978;2023-11-19T05:29:07;9.90;99.90
15241;DHT22;7723;52.170;9.978;2023-11-19T05:31:34;10.00;99.90
15241;DHT22;7723;52.170;9.978;2023-11-19T05:34:01;10.10;99.90
15241;DHT22;7723;52.170;9.978;2023-11-19T05:36:30;10.10;99.90
15241;DHT22;7723;52.170;9.978;2023-11-19T05:38:57;10.20;99.90
15241;DHT22;7723;52.170;9.978;2023-11-19T05:41:24;10.20;99.90
15241;DHT22;7723;52.170;9.978;2023-11-19T05:43:51;10.30;99.90
15241;DHT22;7723;52.170;9.978;2023-11-19T05:46:18;10.40;99.90
15241;DHT22;7723;52.170;9.978;2023-11-19T05:48:45;10.40;99.90
15241;DHT22;7723;52.170;9.978;2023-11-19T05:51:13;10.30;99.90
15241;DHT22;7723;52.170;9.978;2023-11-19T05:53:42;10.40;99.90
15241;DHT22;7723;52.170;9.978;2023-11-19T05:56:09;10.40;99.90
15241;DHT22;7723;52.170;9.978;2023-11-19T05:58:37;10.50;99.90
15241;DHT22;7723;52.170;9.978;2023-11-19T06:01:06;10.50;99.90
15241;DHT22;7723;52.170;9.978;2023-11-19T06:03:33;10.50;99.90
15241;DHT22;7723;52.170;9.978;2023-11-19T06:06:00;10.60;99.90
15241;DHT22;7723;52.170;9.978;2023-11-19T06:08:27;10.70;99.90
15241;DHT22;7723;52.170;9.978;2023-11-19T06:10:57;10.70;99.90
15241;DHT22;7723;52.170;9.978;2023-11-19T06:13:26;10.80;99.90
15241;DHT22;7723;52.170;9.978;2023-11-19T06:15:56;10.70;99.90
15241;DHT22;7723;52.170;9.978;2023-11-19T06:18:23;10.70;99.90
15241;DHT22;7723;52.170;9.978;2023-11-19T06:20:50;10.80;99.90
15241;DHT22;7723;52.170;9.978;2023-11-19T06:23:18;10.80;99.90
15241;DHT22;7723;52.170;9.978;2023-11-19T06:25:45;10.90;99.90
15241;DHT22;7723;52.170;9.978;2023-11-19T06:28:14;10.90;99.90
15241;DHT22;7723;52.170;9.978;2023-11-19T06:30:41;11.00;99.90
15241;DHT22;7723;52.170;9.978;2023-11-19T06:33:08;11.10;99.90
15241;DHT22;7723;52.170;9.978;2023-11-19T06:35:35;11.20;99.90
15241;DHT22;7723;52.170;9.978;2023-11-19T06:38:02;11.30;99.90
15241;DHT22;7723;52.170;9.978;2023-11-19T06:40:30;11.40;99.90
15241;DHT22;7723;52.170;9.978;2023-11-19T06:42:57;11.50;99.90
15241;DHT22;7723;52.170;9.978;2023-11-19T06:45:26;11.50;99.90
15241;DHT22;7723;52.170;9.978;2023-11-19T06:47:54;11.50;99.90
15241;DHT22;7723;52.170;9.978;2023-11-19T06:50:21;11.50;99.90
15241;DHT22;7723;52.170;9.978;2023-11-19T06:52:49;11.50;99.90
15241;DHT22;7723;52.170;9.978;2023-11-19T06:55:17;11.40;99.90
15241;DHT22;7723;52.170;9.978;2023-11-19T06:57:44;11.50;99.90
15241;DHT22;7723;52.170;9.978;2023-11-19T07:00:12;11.40;99.90
15241;DHT22;7723;52.170;9.978;2023-11-19T07:02:40;11.40;99.90
15241;DHT22;7723;52.170;9.978;2023-11-19T07:05:08;11.40;99.90
15241;DHT22;7723;52.170;9.978;2023-11-19T07:07:35;11.40;99.90
15241;DHT22;7723;52.170;9.978;2023-11-19T07:10:02;11.50;99.90
15241;DHT22;7723;52.170;9.978;2023-11-19T07:12:30;11.50;99.90
15241;DHT22;7723;52.170;9.978;2023-11-19T07:14:57;11.50;99.90
15241;DHT22;7723;52.170;9.978;2023-11-19T07:17:24;11.60;99.90
15241;DHT22;7723;52.170;9.978;2023-11-19T07:19:53;11.60;99.90
15241;DHT22;7723;52.170;9.978;2023-11-19T07:22:20;11.50;99.90
15241;DHT22;7723;52.170;9.978;2023-11-19T07:24:48;11.60;99.90
15241;DHT22;7723;52.170;9.978;2023-11-19T07:27:16;11.50;99.90
15241;DHT22;7723;52.170;9.978;2023-11-19T07:29:43;11.60;99.90
15241;DHT22;7723;52.170;9.978;2023-11-19T07:32:11;11.50;99.90
15241;DHT22;7723;52.170;9.978;2023-11-19T07:34:39;11.50;99.90
15241;DHT22;7723;52.170;9.978;2023-11-19T07:37:08;11.50;99.90
15241;DHT22;7723;52.170;9.978;2023-11-19T07:39:35;11.50;99.90
15241;DHT22;7723;52.170;9.978;2023-11-19T07:42:06;11.40;99.90
15241;DHT22;7723;52.170;9.978;2023-11-19T07:44:34;11.50;99.90
15241;DHT22;7723;52.170;9.978;2023-11-19T07:47:02;11.60;99.90
15241;DHT22;7723;52.170;9.978;2023-11-19T07:49:29;11.80;99.90
15241;DHT22;7723;52.170;9.978;2023-11-19T07:51:57;11.80;99.90
15241;DHT22;7723;52.170;9.978;2023-11-19T07:54:26;11.90;99.90
15241;DHT22;7723;52.170;9.978;2023-11-19T07:56:53;11.90;99.90
15241;DHT22;7723;52.170;9.978;2023-11-19T07:59:20;12.00;99.90
15241;DHT22;7723;52.170;9.978;2023-11-19T08:01:48;11.90;99.90
15241;DHT22;7723;52.170;9.978;2023-11-19T08:04:17;11.80;99.90
15241;DHT22;7723;52.170;9.978;2023-11-19T08:06:44;11.70;99.90
15241;DHT22;7723;52.170;9.978;2023-11-19T08:09:11;11.70;99.90
15241;DHT22;7723;52.170;9.978;2023-11-19T08:11:41;11.70;99.90
15241;DHT22;7723;52.170;9.978;2023-11-19T08:14:08;11.70;99.90
15241;DHT22;7723;52.170;9.978;2023-11-19T08:16:35;11.70;99.90
15241;DHT22;7723;52.170;9.978;2023-11-19T08:19:03;11.70;99.90
15241;DHT22;7723;52.170;9.978;2023-11-19T08:21:30;11.70;99.90
15241;DHT22;7723;52.170;9.978;2023-11-19T08:23:58;11.60;99.90
15241;DHT22;7723;52.170;9.978;2023-11-19T08:26:27;11.60;99.90
15241;DHT22;7723;52.170;9.978;2023-11-19T08:28:56;11.60;99.90
15241;DHT22;7723;52.170;9.978;2023-11-19T08:31:24;11.60;99.90
15241;DHT22;7723;52.170;9.978;2023-11-19T08:33:52;11.60;99.90
15241;DHT22;7723;52.170;9.978;2023-11-19T08:36:19;11.80;99.90
15241;DHT22;7723;52.170;9.978;2023-11-19T08:38:46;11.80;99.90
15241;DHT22;7723;52.170;9.978;2023-11-19T08:41:14;11.90;99.90
15241;DHT22;7723;52.170;9.978;2023-11-19T08:43:43;11.90;99.90
15241;DHT22;7723;52.170;9.978;2023-11-19T08:46:12;11.90;99.90
15241;DHT22;7723;52.170;9.978;2023-11-19T08:48:39;11.80;99.90
15241;DHT22;7723;52.170;9.978;2023-11-19T08:51:06;11.80;99.90
15241;DHT22;7723;52.170;9.978;2023-11-19T08:53:33;11.90;99.90
15241;DHT22;7723;52.170;9.978;2023-11-19T08:56:01;11.90;99.90
15241;DHT22;7723;52.170;9.978;2023-11-19T08:58:28;11.90;99.90
15241;DHT22;7723;52.170;9.978;2023-11-19T09:00:56;11.90;99.90
15241;DHT22;7723;52.170;9.978;2023-11-19T09:03:24;12.10;99.90
15241;DHT22;7723;52.170;9.978;2023-11-19T09:05:52;12.30;99.90
15241;DHT22;7723;52.170;9.978;2023-11-19T09:08:19;12.40;99.90
15241;DHT22;7723;52.170;9.978;2023-11-19T09:10:46;12.60;99.90
15241;DHT22;7723;52.170;9.978;2023-11-19T09:13:13;12.60;99.90
15241;DHT22;7723;52.170;9.978;2023-11-19T09:15:41;12.50;99.90
15241;DHT22;7723;52.170;9.978;2023-11-19T09:18:09;12.50;99.90
15241;DHT22;7723;52.170;9.978;2023-11-19T09:20:37;12.40;99.90
15241;DHT22;7723;52.170;9.978;2023-11-19T09:23:04;12.30;99.90
15241;DHT22;7723;52.170;9.978;2023-11-19T09:25:32;12.40;99.90
15241;DHT22;7723;52.170;9.978;2023-11-19T09:27:59;12.50;99.90
15241;DHT22;7723;52.170;9.978;2023-11-19T09:30:27;12.50;99.90
15241;DHT22;7723;52.170;9.978;2023-11-19T09:32:54;12.40;99.90
15241;DHT22;7723;52.170;9.978;2023-11-19T09:35:21;12.30;99.90
15241;DHT22;7723;52.170;9.978;2023-11-19T09:37:50;12.30;99.90
15241;DHT22;7723;52.170;9.978;2023-11-19T09:40:17;12.30;99.90
15241;DHT22;7723;52.170;9.978;2023-11-19T09:42:47;12.30;99.90
15241;DHT22;7723;52.170;9.978;2023-11-19T09:45:15;12.30;99.90
15241;DHT22;7723;52.170;9.978;2023-11-19T09:47:44;12.50;99.90
15241;DHT22;7723;52.170;9.978;2023-11-19T09:50:15;12.40;99.90
15241;DHT22;7723;52.170;9.978;2023-11-19T09:52:43;12.30;99.90
15241;DHT22;7723;52.170;9.978;2023-11-19T09:55:12;12.40;99.90
15241;DHT22;7723;52.170;9.978;2023-11-19T09:57:40;12.50;99.90
15241;DHT22;7723;52.170;9.978;2023-11-19T10:00:08;12.40;99.90
15241;DHT22;7723;52.170;9.978;2023-11-19T10:02:36;12.50;99.90
15241;DHT22;7723;52.170;9.978;2023-11-19T10:05:06;12.50;99.90
15241;DHT22;7723;52.170;9.978;2023-11-19T10:07:34;12.40;99.90
15241;DHT22;7723;52.170;9.978;2023-11-19T10:10:02;12.40;99.90
15241;DHT22;7723;52.170;9.978;2023-11-19T10:12:31;12.40;99.90
15241;DHT22;7723;52.170;9.978;2023-11-19T10:14:59;12.50;99.90
15241;DHT22;7723;52.170;9.978;2023-11-19T10:17:29;12.50;99.90
15241;DHT22;7723;52.170;9.978;2023-11-19T10:19:59;12.50;99.90
15241;DHT22;7723;52.170;9.978;2023-11-19T10:22:30;12.60;99.90
15241;DHT22;7723;52.170;9.978;2023-11-19T10:24:57;12.60;99.90
15241;DHT22;7723;52.170;9.978;2023-11-19T10:27:25;12.50;99.90
15241;DHT22;7723;52.170;9.978;2023-11-19T10:29:53;12.50;99.90
15241;DHT22;7723;52.170;9.978;2023-11-19T10:32:21;12.40;99.90
15241;DHT22;7723;52.170;9.978;2023-11-19T10:34:49;12.30;99.90
15241;DHT22;7723;52.170;9.978;2023-11-19T10:37:27;12.20;99.90
15241;DHT22;7723;52.170;9.978;2023-11-19T10:39:55;12.10;99.90
15241;DHT22;7723;52.170;9.978;2023-11-19T10:42:23;12.00;99.90
15241;DHT22;7723;52.170;9.978;2023-11-19T10:44:52;12.00;99.90
15241;DHT22;7723;52.170;9.978;2023-11-19T10:47:19;11.90;99.90
15241;DHT22;7723;52.170;9.978;2023-11-19T10:49:48;11.80;99.90
15241;DHT22;7723;52.170;9.978;2023-11-19T10:52:18;11.70;99.90
15241;DHT22;7723;52.170;9.978;2023-11-19T10:54:49;11.70;99.90
15241;DHT22;7723;52.170;9.978;2023-11-19T10:57:20;11.60;99.90
15241;DHT22;7723;52.170;9.978;2023-11-19T10:59:48;11.60;99.90
15241;DHT22;7723;52.170;9.978;2023-11-19T11:02:22;11.70;99.90
15241;DHT22;7723;52.170;9.978;2023-11-19T11:04:51;11.80;99.90
15241;DHT22;7723;52.170;9.978;2023-11-19T11:07:21;11.80;99.90
15241;DHT22;7723;52.170;9.978;2023-11-19T11:09:54;11.90;99.90
15241;DHT22;7723;52.170;9.978;2023-11-19T11:12:24;12.00;99.90
15241;DHT22;7723;52.170;9.978;2023-11-19T11:14:53;12.10;99.90
15241;DHT22;7723;52.170;9.978;2023-11-19T11:17:24;12.30;99.90
15241;DHT22;7723;52.170;9.978;2023-11-19T11:19:55;12.30;99.90
15241;DHT22;7723;52.170;9.978;2023-11-19T11:22:26;12.40;99.90
15241;DHT22;7723;52.170;9.978;2023-11-19T11:25:15;12.50;99.90
15241;DHT22;7723;52.170;9.978;2023-11-19T11:28:03;12.50;99.90
15241;DHT22;7723;52.170;9.978;2023-11-19T11:30:42;12.50;99.90
15241;DHT22;7723;52.170;9.978;2023-11-19T11:33:26;12.70;99.90
15241;DHT22;7723;52.170;9.978;2023-11-19T11:36:05;12.70;99.90
15241;DHT22;7723;52.170;9.978;2023-11-19T11:38:38;12.70;99.90
15241;DHT22;7723;52.170;9.978;2023-11-19T11:41:17;12.70;99.90
15241;DHT22;7723;52.170;9.978;2023-11-19T11:43:47;12.70;99.90
15241;DHT22;7723;52.170;9.978;2023-11-19T11:46:55;12.70;99.90
15241;DHT22;7723;52.170;9.978;2023-11-19T11:49:28;12.70;99.90
15241;DHT22;7723;52.170;9.978;2023-11-19T11:52:00;12.70;99.90
15241;DHT22;7723;52.170;9.978;2023-11-19T11:54:27;12.70;99.90
15241;DHT22;7723;52.170;9.978;2023-11-19T11:57:09;12.70;99.90
15241;DHT22;7723;52.170;9.978;2023-11-19T11:59:43;12.70;99.90
15241;DHT22;7723;52.170;9.978;2023-11-19T12:02:11;12.70;99.90
15241;DHT22;7723;52.170;9.978;2023-11-19T12:04:41;12.70;99.90
15241;DHT22;7723;52.170;9.978;2023-11-19T12:07:12;12.70;99.90
15241;DHT22;7723;52.170;9.978;2023-11-19T12:09:40;12.70;82.20
15241;DHT22;7723;52.170;9.978;2023-11-19T12:12:13;12.70;32.40
15241;DHT22;7723;52.170;9.978;2023-11-19T12:15:03;12.70;1.00
15241;DHT22;7723;52.170;9.978;2023-11-19T12:17:42;12.70;1.00
15241;DHT22;7723;52.170;9.978;2023-11-19T12:20:12;12.70;1.00
15241;DHT22;7723;52.170;9.978;2023-11-19T12:22:41;12.70;1.00
15241;DHT22;7723;52.170;9.978;2023-11-19T12:25:09;12.70;1.00
15241;DHT22;7723;52.170;9.978;2023-11-19T12:27:39;12.80;1.00
15241;DHT22;7723;52.170;9.978;2023-11-19T12:30:07;12.80;1.00
15241;DHT22;7723;52.170;9.978;2023-11-19T12:32:38;12.90;1.00
15241;DHT22;7723;52.170;9.978;2023-11-19T12:35:06;12.90;1.00
15241;DHT22;7723;52.170;9.978;2023-11-19T12:37:41;12.90;1.00
15241;DHT22;7723;52.170;9.978;2023-11-19T12:40:16;12.80;1.00
15241;DHT22;7723;52.170;9.978;2023-11-19T12:42:44;12.80;1.00
15241;DHT22;7723;52.170;9.978;2023-11-19T12:45:12;12.70;1.00
15241;DHT22;7723;52.170;9.978;2023-11-19T12:47:39;12.80;1.00
15241;DHT22;7723;52.170;9.978;2023-11-19T12:50:08;12.80;1.00
15241;DHT22;7723;52.170;9.978;2023-11-19T12:52:35;12.80;1.00
15241;DHT22;7723;52.170;9.978;2023-11-19T12:55:05;12.80;1.00
15241;DHT22;7723;52.170;9.978;2023-11-19T12:57:37;12.80;1.00
15241;DHT22;7723;52.170;9.978;2023-11-19T13:00:06;12.70;1.00
15241;DHT22;7723;52.170;9.978;2023-11-19T13:02:47;12.70;1.00
15241;DHT22;7723;52.170;9.978;2023-11-19T13:05:22;12.80;1.00
15241;DHT22;7723;52.170;9.978;2023-11-19T13:07:49;12.80;1.00
15241;DHT22;7723;52.170;9.978;2023-11-19T13:10:18;12.80;1.00
15241;DHT22;7723;52.170;9.978;2023-11-19T13:13:00;12.60;1.00
15241;DHT22;7723;52.170;9.978;2023-11-19T13:15:27;12.40;1.00
15241;DHT22;7723;52.170;9.978;2023-11-19T13:17:54;12.30;3.20
15241;DHT22;7723;52.170;9.978;2023-11-19T13:20:21;12.20;36.20
15241;DHT22;7723;52.170;9.978;2023-11-19T13:22:56;12.20;71.70
15241;DHT22;7723;52.170;9.978;2023-11-19T13:25:24;12.10;74.10
15241;DHT22;7723;52.170;9.978;2023-11-19T13:27:52;12.20;50.60
15241;DHT22;7723;52.170;9.978;2023-11-19T13:30:20;12.20;88.80
15241;DHT22;7723;52.170;9.978;2023-11-19T13:32:48;12.10;99.90
15241;DHT22;7723;52.170;9.978;2023-11-19T13:35:15;12.10;96.50
15241;DHT22;7723;52.170;9.978;2023-11-19T13:37:43;12.10;99.90
15241;DHT22;7723;52.170;9.978;2023-11-19T13:40:10;12.10;99.90
15241;DHT22;7723;52.170;9.978;2023-11-19T13:42:41;12.20;75.20
15241;DHT22;7723;52.170;9.978;2023-11-19T13:45:09;12.10;99.90
15241;DHT22;7723;52.170;9.978;2023-11-19T13:47:38;12.20;99.90
15241;DHT22;7723;52.170;9.978;2023-11-19T13:50:08;12.10;99.90
15241;DHT22;7723;52.170;9.978;2023-11-19T13:52:36;12.10;99.90
15241;DHT22;7723;52.170;9.978;2023-11-19T13:55:06;12.20;99.90
15241;DHT22;7723;52.170;9.978;2023-11-19T13:57:34;12.10;99.90
15241;DHT22;7723;52.170;9.978;2023-11-19T14:00:04;12.20;99.90
15241;DHT22;7723;52.170;9.978;2023-11-19T14:02:32;12.20;99.90
15241;DHT22;7723;52.170;9.978;2023-11-19T14:04:59;12.20;99.90
15241;DHT22;7723;52.170;9.978;2023-11-19T14:07:26;12.20;99.90
15241;DHT22;7723;52.170;9.978;2023-11-19T14:09:54;12.20;99.90
15241;DHT22;7723;52.170;9.978;2023-11-19T14:12:21;12.20;99.90
15241;DHT22;7723;52.170;9.978;2023-11-19T14:14:48;12.10;99.90
15241;DHT22;7723;52.170;9.978;2023-11-19T14:17:17;12.10;99.90
15241;DHT22;7723;52.170;9.978;2023-11-19T14:19:44;12.10;99.90
15241;DHT22;7723;52.170;9.978;2023-11-19T14:22:11;12.00;99.90
15241;DHT22;7723;52.170;9.978;2023-11-19T14:24:39;12.60;99.90
15241;DHT22;7723;52.170;9.978;2023-11-19T14:27:08;12.00;99.90
15241;DHT22;7723;52.170;9.978;2023-11-19T14:29:36;12.00;99.90
15241;DHT22;7723;52.170;9.978;2023-11-19T14:32:06;12.00;99.90
15241;DHT22;7723;52.170;9.978;2023-11-19T14:34:34;12.00;99.90
15241;DHT22;7723;52.170;9.978;2023-11-19T14:37:01;11.90;99.90
15241;DHT22;7723;52.170;9.978;2023-11-19T14:39:28;12.00;99.90
15241;DHT22;7723;52.170;9.978;2023-11-19T14:41:56;11.90;99.90
15241;DHT22;7723;52.170;9.978;2023-11-19T14:44:26;11.80;99.90
15241;DHT22;7723;52.170;9.978;2023-11-19T14:46:55;11.80;99.90
15241;DHT22;7723;52.170;9.978;2023-11-19T14:49:22;11.90;99.90
15241;DHT22;7723;52.170;9.978;2023-11-19T14:51:52;11.90;99.90
15241;DHT22;7723;52.170;9.978;2023-11-19T14:54:19;11.80;99.90
15241;DHT22;7723;52.170;9.978;2023-11-19T14:56:46;11.70;99.90
15241;DHT22;7723;52.170;9.978;2023-11-19T14:59:13;11.60;99.90
15241;DHT22;7723;52.170;9.978;2023-11-19T15:01:40;11.60;99.90
15241;DHT22;7723;52.170;9.978;2023-11-19T15:04:07;11.60;99.90
15241;DHT22;7723;52.170;9.978;2023-11-19T15:06:34;11.60;99.90
15241;DHT22;7723;52.170;9.978;2023-11-19T15:09:03;11.60;99.90
15241;DHT22;7723;52.170;9.978;2023-11-19T15:11:30;11.60;99.90
15241;DHT22;7723;52.170;9.978;2023-11-19T15:13:58;11.60;99.90
15241;DHT22;7723;52.170;9.978;2023-11-19T15:16:26;11.60;99.90
15241;DHT22;7723;52.170;9.978;2023-11-19T15:18:57;11.70;99.90
15241;DHT22;7723;52.170;9.978;2023-11-19T15:21:26;11.60;99.90
15241;DHT22;7723;52.170;9.978;2023-11-19T15:23:54;11.60;99.90
15241;DHT22;7723;52.170;9.978;2023-11-19T15:26:23;11.60;99.90
15241;DHT22;7723;52.170;9.978;2023-11-19T15:28:50;11.50;99.90
15241;DHT22;7723;52.170;9.978;2023-11-19T15:31:21;11.60;99.90
15241;DHT22;7723;52.170;9.978;2023-11-19T15:33:48;11.60;99.90
15241;DHT22;7723;52.170;9.978;2023-11-19T15:36:16;11.60;99.90
15241;DHT22;7723;52.170;9.978;2023-11-19T15:38:43;11.60;99.90
15241;DHT22;7723;52.170;9.978;2023-11-19T15:41:11;11.70;99.90
15241;DHT22;7723;52.170;9.978;2023-11-19T15:43:40;11.70;99.90
15241;DHT22;7723;52.170;9.978;2023-11-19T15:46:08;11.70;99.90
15241;DHT22;7723;52.170;9.978;2023-11-19T15:48:36;11.70;99.90
15241;DHT22;7723;52.170;9.978;2023-11-19T15:51:04;11.70;99.90
15241;DHT22;7723;52.170;9.978;2023-11-19T15:53:31;11.60;99.90
15241;DHT22;7723;52.170;9.978;2023-11-19T15:55:58;11.60;99.90
15241;DHT22;7723;52.170;9.978;2023-11-19T15:58:27;11.60;99.90
15241;DHT22;7723;52.170;9.978;2023-11-19T16:00:55;11.60;99.90
15241;DHT22;7723;52.170;9.978;2023-11-19T16:03:22;11.60;99.90